Time;durP1;ratioP1;P1;durP2;ratioP2;P2;SDS_P1;SDS_P2;PMS_P1;PMS_P2;Temp;Humidity;BMP_temperature;BMP_pressure;BME280_temperature;BME280_humidity;BME280_pressure;Samples;Min_cycle;Max_cycle;Signal;HPM_P1;HPM_P2
2021/05/31 00:02:16;;;;;;;7.30;4.25;;;13.80;67.70;;;;;;4939008;28;96239;-43
2021/05/31 00:04:47;;;;;;;6.35;3.72;;;13.90;69.00;;;;;;4941509;28;95722;-44
2021/05/31 00:07:19;;;;;;;6.28;3.92;;;13.90;69.10;;;;;;4946897;28;95372;-40
2021/05/31 00:09:55;;;;;;;4.57;3.55;;;13.90;68.80;;;;;;4940800;28;96241;-40
2021/05/31 00:12:25;;;;;;;4.13;3.33;;;13.90;68.30;;;;;;4945468;28;96054;-47
2021/05/31 00:14:57;;;;;;;4.75;3.88;;;13.90;68.00;;;;;;4938216;28;95594;-48
2021/05/31 00:17:29;;;;;;;4.95;3.95;;;13.90;68.00;;;;;;4940796;28;95452;-49
2021/05/31 00:19:59;;;;;;;;;;;13.90;67.90;;;;;;4938119;28;95968;-48
2021/05/31 00:22:29;;;;;;;4.97;3.42;;;13.90;67.80;;;;;;4945742;28;95703;-41
2021/05/31 00:25:00;;;;;;;3.72;3.38;;;13.90;67.80;;;;;;4936883;28;96535;-40
2021/05/31 00:27:32;;;;;;;4.45;3.10;;;13.90;67.80;;;;;;4944565;28;95462;-41
2021/05/31 00:30:07;;;;;;;4.90;3.38;;;13.90;67.80;;;;;;4936796;28;96675;-41
2021/05/31 00:32:38;;;;;;;4.15;3.25;;;13.90;67.80;;;;;;4942189;28;95893;-41
2021/05/31 00:35:10;;;;;;;;;;;13.90;68.00;;;;;;4938797;28;96441;-41
2021/05/31 00:37:42;;;;;;;4.90;3.75;;;13.90;67.70;;;;;;4943750;28;96691;-40
2021/05/31 00:40:18;;;;;;;4.05;2.97;;;14.00;67.80;;;;;;4939026;28;101359;-42
2021/05/31 00:42:49;;;;;;;6.50;3.35;;;14.00;67.80;;;;;;4944148;28;96154;-41
2021/05/31 00:45:19;;;;;;;5.78;3.25;;;14.00;68.30;;;;;;4937409;28;95790;-41
2021/05/31 00:47:51;;;;;;;4.53;3.40;;;14.10;68.60;;;;;;4944680;28;96054;-41
2021/05/31 00:50:24;;;;;;;5.10;3.63;;;14.10;68.90;;;;;;4941605;28;98630;-41
2021/05/31 00:52:56;;;;;;;4.93;3.28;;;14.20;69.00;;;;;;4942075;28;97487;-43
2021/05/31 00:55:29;;;;;;;4.53;3.60;;;14.20;69.70;;;;;;4939279;28;95842;-42
2021/05/31 00:57:59;;;;;;;3.75;2.67;;;14.30;69.30;;;;;;4945554;28;95940;-42
2021/05/31 01:00:31;;;;;;;4.15;3.35;;;14.30;69.60;;;;;;4935729;28;98110;-44
2021/05/31 01:03:04;;;;;;;6.60;3.60;;;14.40;69.60;;;;;;4919057;28;102282;-42
2021/05/31 01:05:35;;;;;;;2.92;2.67;;;14.40;69.70;;;;;;4932552;28;96014;-43
2021/05/31 01:08:13;;;;;;;;;;;14.50;70.00;;;;;;4922627;28;95336;-45
2021/05/31 01:10:53;;;;;;;3.38;2.42;;;14.50;69.80;;;;;;4918060;28;96531;-43
2021/05/31 01:13:57;;;;;;;3.53;2.88;;;14.60;70.10;;;;;;4922162;28;96017;-46
2021/05/31 01:16:45;;;;;;;5.07;2.95;;;14.60;70.10;;;;;;4933995;28;97375;-42
2021/05/31 01:19:35;;;;;;;3.95;2.97;;;14.70;70.40;;;;;;4921119;28;95721;-41
2021/05/31 01:22:10;;;;;;;3.25;2.72;;;14.80;70.60;;;;;;4920244;28;96790;-41
2021/05/31 01:24:43;;;;;;;3.13;2.60;;;14.90;70.90;;;;;;4911730;28;96019;-41
2021/05/31 01:27:24;;;;;;;4.65;2.45;;;15.00;70.70;;;;;;4915908;28;95355;-42
2021/05/31 01:30:09;;;;;;;2.55;2.25;;;15.10;70.90;;;;;;4922854;28;95511;-40
2021/05/31 01:32:53;;;;;;;3.95;2.50;;;15.20;71.10;;;;;;4927513;28;96263;-40
2021/05/31 01:35:31;;;;;;;2.50;2.17;;;15.30;71.40;;;;;;4945055;28;95947;-40
2021/05/31 01:38:04;;;;;;;3.45;3.15;;;15.50;71.60;;;;;;4940579;28;95770;-44
2021/05/31 01:40:36;;;;;;;3.13;2.70;;;15.70;71.70;;;;;;4944693;28;95812;-42
2021/05/31 01:43:08;;;;;;;3.83;2.33;;;15.80;71.70;;;;;;4937521;28;96432;-42
2021/05/31 01:45:39;;;;;;;2.63;1.65;;;16.00;71.70;;;;;;4939441;28;96532;-42
2021/05/31 01:48:13;;;;;;;4.00;2.42;;;16.20;71.70;;;;;;4949749;28;95622;-47
2021/05/31 01:50:45;;;;;;;14.43;3.22;;;16.40;71.60;;;;;;4963205;28;95552;-44
2021/05/31 01:53:20;;;;;;;2.90;2.03;;;16.50;71.50;;;;;;4944105;28;96693;-49
2021/05/31 01:55:51;;;;;;;;;;;16.70;71.10;;;;;;4946845;28;95883;-43
2021/05/31 01:58:25;;;;;;;3.15;2.25;;;16.80;70.90;;;;;;4938638;28;95603;-44
2021/05/31 02:00:57;;;;;;;2.78;1.80;;;16.90;70.80;;;;;;4947721;28;96346;-43
2021/05/31 02:03:30;;;;;;;4.22;2.15;;;17.10;70.60;;;;;;4952740;28;99045;-46
2021/05/31 02:06:02;;;;;;;3.40;2.22;;;17.20;70.30;;;;;;4946898;28;95940;-44
2021/05/31 02:08:34;;;;;;;2.88;2.03;;;17.40;70.70;;;;;;4938562;28;98191;-45
2021/05/31 02:11:36;;;;;;;2.55;2.17;;;17.50;69.80;;;;;;4964376;28;95998;-45
2021/05/31 02:14:15;;;;;;;2.53;1.88;;;17.60;69.50;;;;;;4949855;28;96968;-45
2021/05/31 02:17:13;;;;;;;2.22;1.70;;;17.80;69.10;;;;;;4943503;28;96186;-45
2021/05/31 02:19:45;;;;;;;2.42;2.00;;;18.00;68.90;;;;;;4942276;28;95979;-45
2021/05/31 02:22:17;;;;;;;2.00;1.80;;;18.10;68.60;;;;;;4943566;28;95880;-43
2021/05/31 02:24:50;;;;;;;4.45;2.38;;;18.20;68.40;;;;;;4939408;28;96754;-45
2021/05/31 02:27:23;;;;;;;2.28;1.83;;;18.40;68.00;;;;;;4944923;28;95774;-43
2021/05/31 02:29:55;;;;;;;2.83;2.20;;;18.50;67.80;;;;;;4943239;28;95848;-43
2021/05/31 02:32:28;;;;;;;2.15;1.90;;;18.60;67.50;;;;;;4927102;28;95866;-42
2021/05/31 02:34:59;;;;;;;2.67;1.98;;;18.70;67.50;;;;;;4922351;28;100793;-42
2021/05/31 02:37:40;;;;;;;2.47;1.83;;;18.90;67.30;;;;;;4925592;28;96091;-43
2021/05/31 02:40:15;;;;;;;2.10;1.50;;;19.00;67.00;;;;;;4923662;28;95946;-44
2021/05/31 02:42:48;;;;;;;1.70;1.60;;;19.10;66.80;;;;;;4922893;28;95634;-54
2021/05/31 02:45:20;;;;;;;1.80;1.55;;;19.20;66.70;;;;;;4919335;28;96420;-43
2021/05/31 02:47:51;;;;;;;3.13;1.73;;;19.40;66.40;;;;;;4925939;28;102753;-45
2021/05/31 02:50:24;;;;;;;3.38;2.35;;;19.50;66.20;;;;;;4919797;28;97096;-44
2021/05/31 02:52:55;;;;;;;3.50;2.25;;;19.60;62.80;;;;;;4925967;28;97683;-43
2021/05/31 02:55:28;;;;;;;3.03;2.28;;;19.30;61.90;;;;;;4921711;28;96057;-43
2021/05/31 02:58:00;;;;;;;2.45;2.25;;;19.20;61.70;;;;;;4924977;28;97900;-43
2021/05/31 03:00:32;;;;;;;2.75;2.08;;;19.10;63.00;;;;;;4916219;28;96767;-45
2021/05/31 03:03:04;;;;;;;3.13;2.08;;;19.30;63.20;;;;;;4924704;28;95709;-47
2021/05/31 03:09:02;;;;;;;2.35;1.75;;;19.60;63.20;;;;;;5003199;27;95694;-46
2021/05/31 03:11:34;;;;;;;2.42;2.03;;;19.90;62.90;;;;;;4999908;28;95379;-42
2021/05/31 03:14:07;;;;;;;2.03;1.63;;;20.10;62.90;;;;;;5003067;28;95732;-44
2021/05/31 03:17:35;;;;;;;1.75;1.55;;;20.20;62.80;;;;;;4989156;27;95330;-52
2021/05/31 03:20:08;;;;;;;1.92;1.67;;;20.30;62.60;;;;;;4984565;28;95160;-50
2021/05/31 03:22:38;;;;;;;2.00;1.77;;;20.50;62.60;;;;;;4981513;28;96061;-49
2021/05/31 03:25:10;;;;;;;2.08;1.70;;;20.50;62.40;;;;;;4980881;28;95912;-52
2021/05/31 03:27:43;;;;;;;2.47;1.98;;;20.70;62.60;;;;;;4980547;28;95648;-50
2021/05/31 03:30:20;;;;;;;1.52;1.35;;;20.70;62.30;;;;;;4995334;28;95638;-49
2021/05/31 03:32:51;;;;;;;1.67;1.58;;;20.90;62.30;;;;;;4961228;28;95950;-52
2021/05/31 03:35:21;;;;;;;4.88;2.03;;;21.00;62.20;;;;;;4962253;28;98082;-52
2021/05/31 03:37:52;;;;;;;1.67;1.58;;;21.00;62.20;;;;;;4958615;28;97426;-48
2021/05/31 03:40:25;;;;;;;1.67;1.58;;;21.10;62.20;;;;;;4959157;28;96277;-51
2021/05/31 03:42:56;;;;;;;1.70;1.55;;;21.20;62.00;;;;;;4960032;28;96280;-50
2021/05/31 03:45:26;;;;;;;1.53;1.43;;;21.30;62.10;;;;;;4959293;28;96296;-49
2021/05/31 03:48:00;;;;;;;3.95;1.90;;;21.30;61.80;;;;;;4954404;28;96152;-55
2021/05/31 03:50:36;;;;;;;1.80;1.52;;;21.40;61.90;;;;;;4964297;28;95743;-50
2021/05/31 03:53:06;;;;;;;1.55;1.27;;;21.50;61.80;;;;;;4959502;28;97804;-51
2021/05/31 03:55:37;;;;;;;1.48;1.38;;;21.60;62.30;;;;;;4963697;28;96442;-50
2021/05/31 03:58:08;;;;;;;;;;;21.60;61.60;;;;;;4954707;28;96155;-54
2021/05/31 04:00:40;;;;;;;3.30;1.95;;;21.50;57.00;;;;;;4952092;28;95839;-56
2021/05/31 04:03:11;;;;;;;4.40;2.00;;;21.10;56.50;;;;;;4959207;28;95726;-52
2021/05/31 04:05:51;;;;;;;1.58;1.45;;;20.70;56.80;;;;;;4963955;28;95853;-51
2021/05/31 04:14:08;;;;;;;6.07;1.85;;;20.80;53.40;;;;;;4953035;28;95971;-50
2021/05/31 04:16:44;;;;;;;3.70;2.22;;;20.90;54.10;;;;;;4950600;28;96331;-53
2021/05/31 04:19:19;;;;;;;1.58;1.48;;;21.00;53.70;;;;;;4956427;28;95666;-49
2021/05/31 04:21:51;;;;;;;2.33;1.60;;;21.00;50.50;;;;;;4961617;28;96277;-50
2021/05/31 04:24:22;;;;;;;3.10;1.60;;;21.10;52.90;;;;;;4957027;28;96346;-54
2021/05/31 04:26:53;;;;;;;3.83;1.90;;;21.10;51.80;;;;;;4946950;28;98165;-51
2021/05/31 04:29:24;;;;;;;;;;;21.10;47.60;;;;;;4944996;28;96245;-49
2021/05/31 04:31:59;;;;;;;2.47;1.80;;;21.00;51.50;;;;;;4976896;28;96114;-48
2021/05/31 04:34:29;;;;;;;2.25;1.73;;;21.10;50.50;;;;;;4946696;28;95919;-47
2021/05/31 04:36:59;;;;;;;2.25;1.33;;;21.20;49.80;;;;;;4945779;28;98214;-51
2021/05/31 04:39:30;;;;;;;2.35;1.40;;;21.10;44.70;;;;;;4947136;28;95903;-48
2021/05/31 04:42:01;;;;;;;2.00;1.52;;;20.90;48.10;;;;;;4948701;28;95758;-50
2021/05/31 04:44:34;;;;;;;4.22;1.45;;;20.90;47.70;;;;;;4976747;28;95731;-51
2021/05/31 04:47:07;;;;;;;2.30;1.25;;;21.00;50.00;;;;;;4944740;28;96335;-51
2021/05/31 04:49:39;;;;;;;3.00;1.65;;;21.10;47.10;;;;;;4946106;28;96207;-47
2021/05/31 04:52:11;;;;;;;3.33;1.85;;;21.00;47.20;;;;;;4949248;28;95902;-50
2021/05/31 04:54:43;;;;;;;3.40;1.67;;;21.00;45.90;;;;;;4944997;28;96218;-50
2021/05/31 04:57:13;;;;;;;4.80;1.90;;;20.90;48.10;;;;;;4949790;28;96156;-48
2021/05/31 04:59:44;;;;;;;2.63;1.90;;;21.10;49.20;;;;;;4944942;28;95724;-49
2021/05/31 05:02:16;;;;;;;3.58;2.17;;;21.00;46.30;;;;;;4943059;28;96079;-49
2021/05/31 05:04:46;;;;;;;2.53;1.83;;;21.00;45.80;;;;;;4949369;28;95728;-53
2021/05/31 05:07:19;;;;;;;4.03;2.33;;;21.00;46.10;;;;;;4946019;28;98477;-53
2021/05/31 05:09:52;;;;;;;5.13;1.88;;;21.00;50.40;;;;;;4948972;28;95762;-49
2021/05/31 05:12:24;;;;;;;2.00;1.48;;;20.90;48.10;;;;;;4945820;28;95886;-50
2021/05/31 05:14:55;;;;;;;2.90;1.50;;;20.60;46.90;;;;;;4941945;28;95610;-50
2021/05/31 05:17:28;;;;;;;3.50;2.60;;;20.40;49.30;;;;;;4938729;28;96396;-49
2021/05/31 05:19:58;;;;;;;3.33;1.92;;;20.10;49.80;;;;;;4949936;28;95608;-50
2021/05/31 05:22:28;;;;;;;7.35;1.65;;;20.00;50.40;;;;;;4946313;28;95917;-50
2021/05/31 05:24:58;;;;;;;4.85;1.60;;;19.80;48.10;;;;;;4945225;28;95922;-50
2021/05/31 05:27:30;;;;;;;5.90;2.15;;;19.80;49.10;;;;;;4933624;28;95912;-49
2021/05/31 05:30:01;;;;;;;;;;;19.70;51.60;;;;;;4945788;28;95204;-49
2021/05/31 05:32:34;;;;;;;3.80;1.88;;;19.60;49.00;;;;;;4942745;28;96103;-50
2021/05/31 05:35:18;;;;;;;2.92;2.00;;;19.50;51.80;;;;;;4948155;28;95857;-50
2021/05/31 05:48:44;;;;;;;3.97;0.95;;;19.10;49.70;;;;;;4946498;28;103744;-49
2021/05/31 05:51:15;;;;;;;4.68;1.30;;;18.80;48.80;;;;;;4944360;28;97447;-49
2021/05/31 05:53:46;;;;;;;5.37;1.60;;;18.70;49.70;;;;;;4944666;28;95707;-48
2021/05/31 05:56:21;;;;;;;3.80;1.92;;;18.80;50.00;;;;;;4945203;28;96398;-48
2021/05/31 05:58:53;;;;;;;2.97;1.63;;;18.80;50.70;;;;;;4943167;28;96588;-48
2021/05/31 06:01:25;;;;;;;6.05;1.67;;;18.90;49.40;;;;;;4943868;28;99427;-48
2021/05/31 06:03:57;;;;;;;3.47;1.75;;;19.00;50.90;;;;;;4945333;28;97972;-49
2021/05/31 06:06:30;;;;;;;1.45;1.30;;;19.10;49.50;;;;;;4945885;28;95836;-48
2021/05/31 06:09:01;;;;;;;1.52;1.23;;;19.30;50.10;;;;;;4941601;28;96383;-52
2021/05/31 06:11:32;;;;;;;;;;;19.40;50.80;;;;;;4948286;28;96027;-50
2021/05/31 06:14:04;;;;;;;2.22;1.20;;;19.50;50.60;;;;;;4947396;28;95982;-51
2021/05/31 06:16:35;;;;;;;3.30;1.40;;;19.50;49.00;;;;;;4938571;28;96028;-54
2021/05/31 06:19:07;;;;;;;2.60;1.67;;;19.50;50.80;;;;;;4934224;28;97965;-49
2021/05/31 06:21:36;;;;;;;;;;;19.40;49.80;;;;;;4948554;28;95809;-51
2021/05/31 06:24:10;;;;;;;1.60;1.38;;;19.20;48.10;;;;;;4946454;28;95974;-51
2021/05/31 06:26:41;;;;;;;3.00;1.60;;;19.10;49.60;;;;;;4947777;28;96539;-50
2021/05/31 06:29:13;;;;;;;1.40;1.00;;;19.20;50.60;;;;;;4943902;28;95921;-49
2021/05/31 06:31:44;;;;;;;;;;;19.20;50.50;;;;;;4944400;28;95919;-52
2021/05/31 06:34:14;;;;;;;2.97;1.55;;;19.20;50.20;;;;;;4947188;28;95934;-50
2021/05/31 06:36:47;;;;;;;2.22;1.35;;;19.10;52.40;;;;;;4949166;28;95897;-51
2021/05/31 06:39:19;;;;;;;1.92;1.50;;;19.10;52.40;;;;;;4945205;28;95881;-52
2021/05/31 06:41:52;;;;;;;2.78;1.95;;;19.20;52.70;;;;;;4947066;28;95582;-51
2021/05/31 06:44:22;;;;;;;3.28;1.60;;;19.20;52.00;;;;;;4944552;28;95366;-50
2021/05/31 06:46:53;;;;;;;3.00;2.55;;;19.20;52.40;;;;;;4945098;28;95843;-51
2021/05/31 06:49:24;;;;;;;2.58;1.95;;;19.20;52.50;;;;;;4937966;28;98123;-50
2021/05/31 06:51:56;;;;;;;6.80;1.90;;;19.20;52.50;;;;;;4943165;28;96958;-49
2021/05/31 06:54:26;;;;;;;5.38;2.70;;;19.20;52.20;;;;;;4945232;28;95671;-48
2021/05/31 06:56:56;;;;;;;2.10;1.90;;;19.10;52.20;;;;;;4946807;28;96030;-51
2021/05/31 06:59:29;;;;;;;4.40;3.17;;;19.10;52.30;;;;;;4943094;28;95686;-56
2021/05/31 07:01:59;;;;;;;3.17;2.95;;;19.10;52.30;;;;;;4941385;28;98916;-53
2021/05/31 07:04:31;;;;;;;3.17;2.65;;;19.00;52.10;;;;;;4946033;28;95647;-50
2021/05/31 07:07:02;;;;;;;3.72;2.92;;;19.00;52.10;;;;;;4948298;28;96299;-53
2021/05/31 07:09:35;;;;;;;3.83;2.78;;;19.00;52.20;;;;;;4945960;28;98491;-57
2021/05/31 07:12:07;;;;;;;3.75;3.22;;;18.90;52.00;;;;;;4945552;28;95836;-53
2021/05/31 07:14:41;;;;;;;3.70;2.85;;;18.90;51.90;;;;;;4946532;28;95765;-55
2021/05/31 07:17:16;;;;;;;5.15;4.00;;;18.90;52.10;;;;;;4938878;28;95963;-53
2021/05/31 07:19:48;;;;;;;3.45;2.55;;;18.80;51.60;;;;;;4946863;28;95853;-53
2021/05/31 07:22:23;;;;;;;5.22;2.75;;;18.70;56.50;;;;;;4943891;28;96309;-51
2021/05/31 07:24:54;;;;;;;4.13;2.25;;;18.90;56.60;;;;;;4941889;28;96152;-51
2021/05/31 07:27:26;;;;;;;3.72;2.55;;;19.10;56.70;;;;;;4944177;28;95503;-53
2021/05/31 07:29:56;;;;;;;;;;;19.30;56.70;;;;;;4948302;28;95902;-52
2021/05/31 07:32:28;;;;;;;5.20;2.00;;;19.30;56.70;;;;;;4939913;28;95912;-54
2021/05/31 07:34:59;;;;;;;7.40;5.00;;;19.40;56.70;;;;;;4946461;28;95609;-55
2021/05/31 07:37:30;;;;;;;3.05;2.70;;;19.50;57.00;;;;;;4941885;28;95790;-53
2021/05/31 07:40:04;;;;;;;2.70;2.10;;;19.50;57.00;;;;;;4946411;28;95850;-51
2021/05/31 07:42:36;;;;;;;3.33;2.30;;;19.50;57.10;;;;;;4943574;28;95854;-52
2021/05/31 07:45:08;;;;;;;2.85;2.10;;;19.60;57.60;;;;;;4943869;28;95336;-62
2021/05/31 07:47:40;;;;;;;3.40;2.03;;;19.50;57.90;;;;;;4941898;28;96083;-53
2021/05/31 07:50:15;;;;;;;2.92;2.20;;;19.60;57.80;;;;;;4945689;28;95888;-52
2021/05/31 07:52:47;;;;;;;2.65;1.98;;;19.60;58.10;;;;;;4944306;28;95869;-52
2021/05/31 07:55:18;;;;;;;2.57;1.70;;;19.60;58.20;;;;;;4946915;28;95626;-51
2021/05/31 07:57:51;;;;;;;3.53;2.53;;;19.60;58.30;;;;;;4943718;28;95881;-50
2021/05/31 08:00:23;;;;;;;3.13;2.55;;;19.60;58.50;;;;;;4943495;28;96555;-52
2021/05/31 08:02:53;;;;;;;3.88;2.58;;;19.60;58.70;;;;;;4943069;28;97187;-52
2021/05/31 08:05:27;;;;;;;5.55;3.53;;;19.60;59.10;;;;;;4949713;28;95837;-52
2021/05/31 08:07:57;;;;;;;2.80;2.30;;;19.40;59.20;;;;;;4944846;28;96083;-56
2021/05/31 08:10:29;;;;;;;3.53;2.03;;;19.30;60.00;;;;;;4950640;28;96498;-54
2021/05/31 08:12:59;;;;;;;;;;;19.10;60.40;;;;;;4946565;28;95651;-56
2021/05/31 08:15:32;;;;;;;3.78;2.50;;;19.00;60.30;;;;;;4946993;28;95987;-53
2021/05/31 08:18:04;;;;;;;4.53;2.60;;;18.90;60.40;;;;;;4946787;28;95460;-53
2021/05/31 08:20:35;;;;;;;4.20;2.80;;;18.90;60.60;;;;;;4949633;28;95827;-53
2021/05/31 08:23:06;;;;;;;9.20;3.10;;;18.80;61.00;;;;;;4945950;28;96169;-51
2021/05/31 08:25:37;;;;;;;4.07;2.75;;;18.80;60.90;;;;;;4948684;28;95485;-51
2021/05/31 08:28:09;;;;;;;3.75;2.88;;;18.80;61.20;;;;;;4947693;28;95595;-52
2021/05/31 08:30:42;;;;;;;4.95;2.90;;;18.80;61.10;;;;;;4945345;28;96649;-58
2021/05/31 08:33:12;;;;;;;3.95;3.20;;;18.80;60.90;;;;;;4945975;28;95445;-54
2021/05/31 08:35:44;;;;;;;6.72;3.05;;;18.70;61.70;;;;;;4947977;28;95754;-54
2021/05/31 08:38:15;;;;;;;4.82;3.20;;;18.80;62.30;;;;;;4946232;28;95926;-56
2021/05/31 08:40:47;;;;;;;4.63;3.22;;;18.80;62.70;;;;;;4947654;28;96368;-56
2021/05/31 08:43:18;;;;;;;4.95;3.75;;;18.70;62.50;;;;;;4976990;28;96177;-52
2021/05/31 08:45:49;;;;;;;5.22;3.15;;;18.70;62.40;;;;;;4939868;28;95829;-56
2021/05/31 08:48:23;;;;;;;4.40;3.00;;;18.70;62.40;;;;;;4949916;28;96071;-55
2021/05/31 08:50:58;;;;;;;3.45;2.83;;;18.70;62.70;;;;;;4945546;28;97644;-55
2021/05/31 08:53:30;;;;;;;4.45;3.25;;;18.60;62.70;;;;;;4949034;28;96092;-59
2021/05/31 08:56:00;;;;;;;5.10;3.17;;;18.60;62.80;;;;;;4945079;28;96192;-56
2021/05/31 08:58:31;;;;;;;6.20;3.67;;;18.50;62.80;;;;;;4946502;28;96016;-56
2021/05/31 09:01:01;;;;;;;3.90;3.05;;;18.50;63.20;;;;;;4940661;28;95925;-55
2021/05/31 09:03:32;;;;;;;6.03;3.35;;;18.40;63.10;;;;;;4948725;28;95529;-55
2021/05/31 09:06:09;;;;;;;6.70;3.35;;;18.40;63.20;;;;;;4942472;28;95813;-57
2021/05/31 09:08:45;;;;;;;4.35;3.22;;;18.40;63.30;;;;;;4948476;28;95760;-54
2021/05/31 09:11:20;;;;;;;3.75;2.88;;;18.30;63.70;;;;;;4943556;28;95840;-54
2021/05/31 09:13:53;;;;;;;4.03;3.63;;;18.20;63.40;;;;;;4947479;28;95683;-55
2021/05/31 09:16:28;;;;;;;6.18;3.55;;;18.20;63.60;;;;;;4940962;28;95881;-55
2021/05/31 09:19:03;;;;;;;4.45;3.58;;;18.10;63.70;;;;;;4947216;28;95797;-55
2021/05/31 09:21:38;;;;;;;3.95;3.40;;;18.10;63.70;;;;;;4941970;28;96050;-55
2021/05/31 09:24:13;;;;;;;5.53;4.10;;;18.00;63.60;;;;;;4944206;28;95892;-53
2021/05/31 09:27:01;;;;;;;4.20;3.30;;;18.00;63.70;;;;;;4945759;28;95611;-55
2021/05/31 09:29:32;;;;;;;3.75;3.20;;;18.00;64.00;;;;;;4948012;28;96637;-57
2021/05/31 09:32:06;;;;;;;;;;;17.90;64.20;;;;;;4941012;28;96122;-55
2021/05/31 09:34:36;;;;;;;4.22;3.28;;;17.90;64.40;;;;;;4947393;28;95401;-55
2021/05/31 09:37:06;;;;;;;5.68;4.03;;;17.90;64.60;;;;;;4944839;28;95895;-56
2021/05/31 09:39:43;;;;;;;4.45;3.38;;;17.90;64.60;;;;;;4947369;28;95942;-53
2021/05/31 09:42:17;;;;;;;6.10;3.65;;;17.80;64.50;;;;;;4944667;28;96057;-58
2021/05/31 09:44:58;;;;;;;4.93;3.53;;;17.80;64.60;;;;;;4945608;28;95791;-55
2021/05/31 09:47:31;;;;;;;4.32;3.90;;;17.80;65.00;;;;;;4938670;28;97872;-51
2021/05/31 09:50:06;;;;;;;5.53;4.00;;;17.70;64.90;;;;;;4943770;28;96716;-55
2021/05/31 09:52:38;;;;;;;6.78;3.28;;;17.70;64.90;;;;;;4943754;28;96411;-54
2021/05/31 09:55:11;;;;;;;7.30;4.25;;;17.70;64.90;;;;;;4945966;28;96038;-56
2021/05/31 09:57:40;;;;;;;;;;;17.70;65.00;;;;;;4944067;28;95833;-59
2021/05/31 10:00:17;;;;;;;6.80;3.92;;;17.70;64.90;;;;;;4975726;28;96362;-53
2021/05/31 10:03:15;;;;;;;7.63;5.43;;;17.60;64.90;;;;;;4943392;28;102275;-58
2021/05/31 10:11:07;;;;;;;11.07;5.70;;;17.50;65.20;;;;;;4948084;28;95163;-54
2021/05/31 10:13:41;;;;;;;11.73;6.30;;;17.40;65.10;;;;;;4944656;28;95837;-54
2021/05/31 10:16:14;;;;;;;10.38;6.50;;;17.40;65.30;;;;;;4942360;28;95981;-54
2021/05/31 10:18:46;;;;;;;13.60;6.57;;;17.40;65.40;;;;;;4944362;28;96512;-54
2021/05/31 10:21:16;;;;;;;11.45;6.85;;;17.30;65.50;;;;;;4946326;28;95699;-56
2021/05/31 10:23:46;;;;;;;11.57;6.80;;;17.30;65.50;;;;;;4942442;28;101219;-54
2021/05/31 10:26:19;;;;;;;10.63;6.07;;;17.30;65.40;;;;;;4944844;28;95790;-57
2021/05/31 10:28:53;;;;;;;11.95;7.72;;;17.30;65.30;;;;;;4944742;28;100015;-55
2021/05/31 10:31:26;;;;;;;12.77;7.43;;;17.30;65.40;;;;;;4942899;28;95516;-54
2021/05/31 10:34:03;;;;;;;9.85;6.22;;;17.20;65.30;;;;;;4942981;28;96325;-55
2021/05/31 10:36:35;;;;;;;13.07;7.80;;;17.20;65.30;;;;;;4958553;28;95719;-52
2021/05/31 10:39:07;;;;;;;13.32;8.15;;;17.20;65.40;;;;;;4944974;28;95209;-51
2021/05/31 10:41:40;;;;;;;13.07;7.00;;;17.10;65.30;;;;;;4945391;28;95970;-49
2021/05/31 10:44:17;;;;;;;11.73;7.15;;;17.10;65.30;;;;;;4935188;28;95924;-49
2021/05/31 10:46:48;;;;;;;13.38;7.47;;;17.00;65.30;;;;;;4933112;28;95878;-49
2021/05/31 10:49:22;;;;;;;12.68;8.35;;;16.90;65.60;;;;;;4934934;28;95370;-53
2021/05/31 10:51:53;;;;;;;11.88;7.90;;;16.80;65.80;;;;;;4931925;28;95581;-52
2021/05/31 10:54:25;;;;;;;11.20;6.67;;;16.70;66.10;;;;;;4931279;28;96915;-53
2021/05/31 10:57:08;;;;;;;12.23;7.63;;;16.60;66.10;;;;;;4946298;28;95870;-49
2021/05/31 10:59:50;;;;;;;13.07;7.97;;;16.60;66.10;;;;;;4932255;28;95448;-49
2021/05/31 11:02:29;;;;;;;12.93;8.23;;;16.50;66.20;;;;;;4927826;28;95900;-51
2021/05/31 11:05:10;;;;;;;13.77;7.97;;;16.50;66.10;;;;;;4935739;28;95912;-49
2021/05/31 11:07:44;;;;;;;13.27;7.78;;;16.40;66.20;;;;;;4942668;28;95961;-50
2021/05/31 11:10:18;;;;;;;11.98;7.63;;;16.40;66.40;;;;;;4945758;28;95319;-50
2021/05/31 11:12:47;;;;;;;13.93;8.13;;;16.30;66.40;;;;;;4948185;28;95744;-50
2021/05/31 11:15:20;;;;;;;11.43;7.35;;;16.30;66.60;;;;;;4926636;28;95913;-50
2021/05/31 11:17:53;;;;;;;15.32;8.57;;;16.20;66.60;;;;;;4931824;28;95631;-58
2021/05/31 11:20:29;;;;;;;15.70;8.38;;;16.20;66.50;;;;;;4937625;28;95744;-58
2021/05/31 11:23:05;;;;;;;13.95;8.55;;;16.20;67.00;;;;;;4939048;28;95957;-57
2021/05/31 11:25:36;;;;;;;11.88;7.43;;;16.30;67.00;;;;;;4934387;28;97084;-53
2021/05/31 11:28:07;;;;;;;;;;;16.30;66.90;;;;;;4944033;28;95511;-58
2021/05/31 11:30:39;;;;;;;12.70;7.70;;;16.40;66.70;;;;;;4935772;28;96404;-54
2021/05/31 11:33:15;;;;;;;11.18;6.82;;;16.30;67.20;;;;;;4941839;28;95914;-51
2021/05/31 11:35:47;;;;;;;12.48;8.30;;;16.30;66.80;;;;;;4939474;28;95837;-52
2021/05/31 11:38:20;;;;;;;12.13;7.25;;;16.30;67.00;;;;;;4944062;28;97461;-53
2021/05/31 11:40:51;;;;;;;12.82;7.95;;;16.40;67.20;;;;;;4957000;28;95335;-50
2021/05/31 11:43:23;;;;;;;10.80;6.75;;;16.40;67.20;;;;;;4943913;28;95564;-49
2021/05/31 11:45:54;;;;;;;12.77;7.07;;;16.40;66.90;;;;;;4938532;28;95854;-52
2021/05/31 11:48:28;;;;;;;10.73;6.47;;;16.40;66.90;;;;;;4942139;28;95927;-49
2021/05/31 11:51:00;;;;;;;9.25;6.28;;;16.40;66.80;;;;;;4940549;28;96124;-51
2021/05/31 11:53:30;;;;;;;10.33;6.20;;;16.40;66.80;;;;;;4946725;28;96793;-51
2021/05/31 11:56:00;;;;;;;10.13;6.80;;;16.40;66.90;;;;;;4972066;28;97898;-53
2021/05/31 11:58:30;;;;;;;9.65;6.22;;;16.40;66.90;;;;;;4946573;28;95913;-54
2021/05/31 12:01:01;;;;;;;11.30;6.47;;;16.40;66.90;;;;;;4938924;28;95784;-53
2021/05/31 12:03:32;;;;;;;9.02;5.68;;;16.40;66.90;;;;;;4948569;28;95611;-49
2021/05/31 12:06:12;;;;;;;8.07;6.25;;;16.30;66.90;;;;;;4940925;28;95811;-54
2021/05/31 12:08:46;;;;;;;8.80;5.35;;;16.30;66.90;;;;;;4947449;28;95841;-51
2021/05/31 12:11:22;;;;;;;8.73;5.82;;;16.30;66.90;;;;;;4943290;28;95481;-50
2021/05/31 12:14:02;;;;;;;11.55;6.53;;;16.30;66.90;;;;;;4950137;28;95335;-50
2021/05/31 12:16:35;;;;;;;10.77;5.87;;;16.30;66.80;;;;;;4940987;28;96108;-51
2021/05/31 12:19:17;;;;;;;10.68;6.38;;;16.20;66.90;;;;;;4942934;28;95943;-51
2021/05/31 12:21:48;;;;;;;;;;;16.20;67.00;;;;;;4937584;28;95734;-51
2021/05/31 12:27:36;;;;;;;7.60;5.35;;;16.20;67.00;;;;;;5003247;27;95740;-52
2021/05/31 12:30:12;;;;;;;11.07;6.10;;;16.20;67.50;;;;;;4985590;28;95783;-55
2021/05/31 12:32:43;;;;;;;12.20;5.55;;;16.30;67.60;;;;;;4942579;27;96494;-54
2021/05/31 12:35:14;;;;;;;10.38;5.93;;;16.30;67.60;;;;;;4941600;28;95930;-52
2021/05/31 12:37:52;;;;;;;7.30;4.85;;;16.40;67.70;;;;;;4931541;28;97807;-55
2021/05/31 12:40:25;;;;;;;8.10;5.20;;;16.40;67.60;;;;;;4924203;28;95568;-51
2021/05/31 12:42:56;;;;;;;8.13;4.65;;;16.50;67.70;;;;;;4924131;28;95249;-55
2021/05/31 12:46:00;;;;;;;7.78;4.82;;;16.50;67.70;;;;;;5003187;27;95823;-54
2021/05/31 12:48:34;;;;;;;7.88;5.13;;;16.60;67.80;;;;;;4964634;28;95785;-53
2021/05/31 12:51:13;;;;;;;10.02;5.47;;;16.60;67.60;;;;;;4967821;28;95209;-52
2021/05/31 12:53:48;;;;;;;8.98;6.22;;;16.70;67.60;;;;;;4957764;28;96023;-50
2021/05/31 12:56:18;;;;;;;6.18;4.50;;;16.70;67.60;;;;;;4962259;28;95992;-56
2021/05/31 12:59:09;;;;;;;6.30;4.13;;;16.80;67.60;;;;;;4960408;28;95532;-54
2021/05/31 13:01:46;;;;;;;9.18;5.88;;;16.70;67.60;;;;;;4953287;28;95699;-50
2021/05/31 13:04:29;;;;;;;6.68;4.65;;;16.80;67.60;;;;;;4958709;28;96684;-49
2021/05/31 13:07:17;;;;;;;8.45;5.28;;;16.80;67.70;;;;;;4969383;28;95550;-53
2021/05/31 13:09:48;;;;;;;8.77;5.43;;;16.80;67.00;;;;;;4959155;28;96607;-54
2021/05/31 13:12:18;;;;;;;6.53;4.97;;;16.70;66.90;;;;;;4963408;28;95819;-55
2021/05/31 13:14:52;;;;;;;7.05;4.70;;;16.60;62.90;;;;;;4956402;28;95919;-53
2021/05/31 13:17:30;;;;;;;7.78;5.10;;;16.60;67.10;;;;;;4957196;28;97765;-52
2021/05/31 13:20:12;;;;;;;8.95;5.85;;;16.60;67.00;;;;;;4959100;28;95708;-52
2021/05/31 13:22:56;;;;;;;8.23;5.38;;;16.50;66.90;;;;;;4960840;28;95512;-52
2021/05/31 13:25:32;;;;;;;7.32;4.72;;;16.50;66.90;;;;;;4957182;28;96398;-51
2021/05/31 13:28:21;;;;;;;11.00;4.70;;;16.50;66.80;;;;;;4957606;28;95843;-50
2021/05/31 13:30:57;;;;;;;6.47;4.68;;;16.50;66.80;;;;;;4956391;28;95490;-54
2021/05/31 13:33:28;;;;;;;7.72;5.18;;;16.40;66.80;;;;;;4963337;28;96433;-55
2021/05/31 13:36:10;;;;;;;7.22;4.78;;;16.40;66.70;;;;;;4958549;28;95841;-52
2021/05/31 13:38:41;;;;;;;7.57;5.03;;;16.40;66.80;;;;;;4962188;28;95848;-54
2021/05/31 13:41:14;;;;;;;7.93;5.43;;;16.30;66.70;;;;;;4975482;28;95259;-54
2021/05/31 13:43:55;;;;;;;7.47;5.03;;;16.30;66.70;;;;;;4961816;28;95472;-50
2021/05/31 13:46:26;;;;;;;7.38;5.30;;;16.20;66.70;;;;;;4963306;28;96471;-52
2021/05/31 13:48:58;;;;;;;8.05;4.75;;;16.20;66.70;;;;;;4966790;28;96098;-53
2021/05/31 13:51:30;;;;;;;5.72;5.07;;;16.20;66.70;;;;;;4962143;28;95591;-51